sensor_id;sensor_type;location;lat;lon;timestamp;temperature;humidity
29939;DHT22;16799;50.844;5.304;2022-11-30T00:00:59;8.00;99.90
29939;DHT22;16799;50.844;5.304;2022-11-30T00:03:32;7.90;99.90
29939;DHT22;16799;50.844;5.304;2022-11-30T00:06:05;7.90;99.90
29939;DHT22;16799;50.844;5.304;2022-11-30T00:08:31;7.80;99.90
29939;DHT22;16799;50.844;5.304;2022-11-30T00:10:57;8.00;99.90
29939;DHT22;16799;50.844;5.304;2022-11-30T00:13:22;8.00;99.90
29939;DHT22;16799;50.844;5.304;2022-11-30T00:15:49;8.00;99.90
29939;DHT22;16799;50.844;5.304;2022-11-30T00:18:14;7.90;99.90
29939;DHT22;16799;50.844;5.304;2022-11-30T00:20:42;7.90;99.90
29939;DHT22;16799;50.844;5.304;2022-11-30T00:23:08;7.80;99.90
29939;DHT22;16799;50.844;5.304;2022-11-30T00:25:35;7.60;99.90
29939;DHT22;16799;50.844;5.304;2022-11-30T00:28:01;7.60;99.90
29939;DHT22;16799;50.844;5.304;2022-11-30T00:30:27;7.60;99.90
29939;DHT22;16799;50.844;5.304;2022-11-30T00:32:56;7.50;99.90
29939;DHT22;16799;50.844;5.304;2022-11-30T00:35:22;7.40;99.90
29939;DHT22;16799;50.844;5.304;2022-11-30T00:37:48;7.50;99.90
29939;DHT22;16799;50.844;5.304;2022-11-30T00:40:13;7.50;99.90
29939;DHT22;16799;50.844;5.304;2022-11-30T00:42:39;7.30;99.90
29939;DHT22;16799;50.844;5.304;2022-11-30T00:45:05;7.30;99.90
29939;DHT22;16799;50.844;5.304;2022-11-30T00:47:31;7.30;99.90
29939;DHT22;16799;50.844;5.304;2022-11-30T00:49:56;7.40;99.90
29939;DHT22;16799;50.844;5.304;2022-11-30T00:52:22;7.30;99.90
29939;DHT22;16799;50.844;5.304;2022-11-30T00:54:48;7.30;99.90
29939;DHT22;16799;50.844;5.304;2022-11-30T00:57:13;7.20;99.90
29939;DHT22;16799;50.844;5.304;2022-11-30T00:59:39;7.20;99.90
29939;DHT22;16799;50.844;5.304;2022-11-30T01:02:04;7.20;99.90
29939;DHT22;16799;50.844;5.304;2022-11-30T01:04:30;7.10;99.90
29939;DHT22;16799;50.844;5.304;2022-11-30T01:06:56;7.10;99.90
29939;DHT22;16799;50.844;5.304;2022-11-30T01:09:21;7.10;99.90
29939;DHT22;16799;50.844;5.304;2022-11-30T01:11:47;7.10;99.90
29939;DHT22;16799;50.844;5.304;2022-11-30T01:14:13;7.20;99.90
29939;DHT22;16799;50.844;5.304;2022-11-30T01:16:38;7.30;99.90
29939;DHT22;16799;50.844;5.304;2022-11-30T01:19:04;7.30;99.90
29939;DHT22;16799;50.844;5.304;2022-11-30T01:21:30;7.30;99.90
29939;DHT22;16799;50.844;5.304;2022-11-30T01:23:56;7.20;99.90
29939;DHT22;16799;50.844;5.304;2022-11-30T01:26:22;7.20;99.90
29939;DHT22;16799;50.844;5.304;2022-11-30T01:28:52;7.10;99.90
29939;DHT22;16799;50.844;5.304;2022-11-30T01:31:19;7.10;99.90
29939;DHT22;16799;50.844;5.304;2022-11-30T01:33:53;7.10;99.90
29939;DHT22;16799;50.844;5.304;2022-11-30T01:36:25;7.10;99.90
29939;DHT22;16799;50.844;5.304;2022-11-30T01:38:52;7.10;99.90
29939;DHT22;16799;50.844;5.304;2022-11-30T01:41:27;7.00;99.90
29939;DHT22;16799;50.844;5.304;2022-11-30T01:43:56;7.00;99.90
29939;DHT22;16799;50.844;5.304;2022-11-30T01:46:32;7.00;99.90
29939;DHT22;16799;50.844;5.304;2022-11-30T01:49:04;7.00;99.90
29939;DHT22;16799;50.844;5.304;2022-11-30T01:51:52;7.00;99.90
29939;DHT22;16799;50.844;5.304;2022-11-30T01:54:24;7.00;99.90
29939;DHT22;16799;50.844;5.304;2022-11-30T01:56:56;6.90;99.90
29939;DHT22;16799;50.844;5.304;2022-11-30T01:59:24;6.90;99.90
29939;DHT22;16799;50.844;5.304;2022-11-30T02:01:51;6.90;99.90
29939;DHT22;16799;50.844;5.304;2022-11-30T02:04:25;6.80;99.90
29939;DHT22;16799;50.844;5.304;2022-11-30T02:06:52;6.90;99.90
29939;DHT22;16799;50.844;5.304;2022-11-30T02:09:19;6.90;99.90
29939;DHT22;16799;50.844;5.304;2022-11-30T02:11:46;7.00;99.90
29939;DHT22;16799;50.844;5.304;2022-11-30T02:17:47;6.90;99.90
29939;DHT22;16799;50.844;5.304;2022-11-30T02:26:11;6.70;99.90
29939;DHT22;16799;50.844;5.304;2022-11-30T02:29:11;6.60;99.90
29939;DHT22;16799;50.844;5.304;2022-11-30T02:34:14;6.60;99.90
29939;DHT22;16799;50.844;5.304;2022-11-30T02:36:41;6.60;99.90
29939;DHT22;16799;50.844;5.304;2022-11-30T02:39:09;6.60;99.90
29939;DHT22;16799;50.844;5.304;2022-11-30T02:41:39;6.70;99.90
29939;DHT22;16799;50.844;5.304;2022-11-30T02:44:08;6.80;99.90
29939;DHT22;16799;50.844;5.304;2022-11-30T02:49:32;6.80;99.90
29939;DHT22;16799;50.844;5.304;2022-11-30T02:52:00;6.80;99.90
29939;DHT22;16799;50.844;5.304;2022-11-30T02:54:27;6.70;99.90
29939;DHT22;16799;50.844;5.304;2022-11-30T02:56:52;6.70;99.90
29939;DHT22;16799;50.844;5.304;2022-11-30T02:59:18;6.90;99.90
29939;DHT22;16799;50.844;5.304;2022-11-30T03:01:44;6.90;99.90
29939;DHT22;16799;50.844;5.304;2022-11-30T03:04:10;6.90;99.90
29939;DHT22;16799;50.844;5.304;2022-11-30T03:06:36;7.00;99.90
29939;DHT22;16799;50.844;5.304;2022-11-30T03:09:01;7.00;99.90
29939;DHT22;16799;50.844;5.304;2022-11-30T03:11:27;6.90;99.90
29939;DHT22;16799;50.844;5.304;2022-11-30T03:13:53;6.90;99.90
29939;DHT22;16799;50.844;5.304;2022-11-30T03:16:18;7.10;99.90
29939;DHT22;16799;50.844;5.304;2022-11-30T03:18:44;7.10;99.90
29939;DHT22;16799;50.844;5.304;2022-11-30T03:21:11;7.10;99.90
29939;DHT22;16799;50.844;5.304;2022-11-30T03:23:38;7.20;99.90
29939;DHT22;16799;50.844;5.304;2022-11-30T03:26:05;7.30;99.90
29939;DHT22;16799;50.844;5.304;2022-11-30T03:28:32;7.30;99.90
29939;DHT22;16799;50.844;5.304;2022-11-30T03:30:59;7.10;99.90
29939;DHT22;16799;50.844;5.304;2022-11-30T03:33:24;7.10;99.90
29939;DHT22;16799;50.844;5.304;2022-11-30T03:36:08;7.00;99.90
29939;DHT22;16799;50.844;5.304;2022-11-30T03:38:34;7.00;99.90
29939;DHT22;16799;50.844;5.304;2022-11-30T03:41:20;6.90;99.90
29939;DHT22;16799;50.844;5.304;2022-11-30T03:43:46;6.90;99.90
29939;DHT22;16799;50.844;5.304;2022-11-30T03:46:12;6.80;99.90
29939;DHT22;16799;50.844;5.304;2022-11-30T03:48:38;6.80;99.90
29939;DHT22;16799;50.844;5.304;2022-11-30T03:51:06;6.70;99.90
29939;DHT22;16799;50.844;5.304;2022-11-30T03:53:32;6.70;99.90
29939;DHT22;16799;50.844;5.304;2022-11-30T03:55:59;6.70;99.90
29939;DHT22;16799;50.844;5.304;2022-11-30T03:58:26;6.70;99.90
29939;DHT22;16799;50.844;5.304;2022-11-30T04:01:10;6.70;99.90
29939;DHT22;16799;50.844;5.304;2022-11-30T04:03:37;6.70;99.90
29939;DHT22;16799;50.844;5.304;2022-11-30T04:06:04;6.70;99.90
29939;DHT22;16799;50.844;5.304;2022-11-30T04:08:30;6.70;99.90
29939;DHT22;16799;50.844;5.304;2022-11-30T04:10:57;6.80;99.90
29939;DHT22;16799;50.844;5.304;2022-11-30T04:13:24;6.80;99.90
29939;DHT22;16799;50.844;5.304;2022-11-30T04:15:51;6.80;99.90
29939;DHT22;16799;50.844;5.304;2022-11-30T04:18:18;6.70;99.90
29939;DHT22;16799;50.844;5.304;2022-11-30T04:20:45;6.70;99.90
29939;DHT22;16799;50.844;5.304;2022-11-30T04:23:11;6.80;99.90
29939;DHT22;16799;50.844;5.304;2022-11-30T04:25:40;6.90;99.90
29939;DHT22;16799;50.844;5.304;2022-11-30T04:28:07;7.00;99.90
29939;DHT22;16799;50.844;5.304;2022-11-30T04:30:34;6.90;99.90
29939;DHT22;16799;50.844;5.304;2022-11-30T04:33:01;6.80;99.90
29939;DHT22;16799;50.844;5.304;2022-11-30T04:35:27;6.90;99.90
29939;DHT22;16799;50.844;5.304;2022-11-30T04:37:53;6.90;99.90
29939;DHT22;16799;50.844;5.304;2022-11-30T04:40:19;6.90;99.90
29939;DHT22;16799;50.844;5.304;2022-11-30T04:42:45;6.90;99.90
29939;DHT22;16799;50.844;5.304;2022-11-30T04:45:10;6.90;99.90
29939;DHT22;16799;50.844;5.304;2022-11-30T04:47:36;6.80;99.90
29939;DHT22;16799;50.844;5.304;2022-11-30T04:50:03;6.90;99.90
29939;DHT22;16799;50.844;5.304;2022-11-30T04:52:29;6.90;99.90
29939;DHT22;16799;50.844;5.304;2022-11-30T04:54:54;6.90;99.90
29939;DHT22;16799;50.844;5.304;2022-11-30T04:57:22;7.10;99.90
29939;DHT22;16799;50.844;5.304;2022-11-30T04:59:47;7.30;99.90
29939;DHT22;16799;50.844;5.304;2022-11-30T05:02:13;7.20;99.90
29939;DHT22;16799;50.844;5.304;2022-11-30T05:04:39;7.20;99.90
29939;DHT22;16799;50.844;5.304;2022-11-30T05:07:04;7.30;99.90
29939;DHT22;16799;50.844;5.304;2022-11-30T05:09:30;7.10;99.90
29939;DHT22;16799;50.844;5.304;2022-11-30T05:11:56;7.20;99.90
29939;DHT22;16799;50.844;5.304;2022-11-30T05:14:22;7.40;99.90
29939;DHT22;16799;50.844;5.304;2022-11-30T05:16:48;7.50;99.90
29939;DHT22;16799;50.844;5.304;2022-11-30T05:19:14;7.40;99.90
29939;DHT22;16799;50.844;5.304;2022-11-30T05:21:40;7.20;99.90
29939;DHT22;16799;50.844;5.304;2022-11-30T05:24:06;7.00;99.90
29939;DHT22;16799;50.844;5.304;2022-11-30T05:26:32;6.80;99.90
29939;DHT22;16799;50.844;5.304;2022-11-30T05:28:58;6.70;99.90
29939;DHT22;16799;50.844;5.304;2022-11-30T05:31:24;6.70;99.90
29939;DHT22;16799;50.844;5.304;2022-11-30T05:33:51;6.70;99.90
29939;DHT22;16799;50.844;5.304;2022-11-30T05:36:17;6.70;99.90
29939;DHT22;16799;50.844;5.304;2022-11-30T05:38:43;6.80;99.90
29939;DHT22;16799;50.844;5.304;2022-11-30T05:41:09;6.90;99.90
29939;DHT22;16799;50.844;5.304;2022-11-30T05:43:35;7.00;99.90
29939;DHT22;16799;50.844;5.304;2022-11-30T05:46:03;7.00;99.90
29939;DHT22;16799;50.844;5.304;2022-11-30T05:48:29;7.20;99.90
29939;DHT22;16799;50.844;5.304;2022-11-30T05:50:55;7.30;99.90
29939;DHT22;16799;50.844;5.304;2022-11-30T05:53:28;7.40;99.90
29939;DHT22;16799;50.844;5.304;2022-11-30T05:55:54;7.50;99.90
29939;DHT22;16799;50.844;5.304;2022-11-30T05:58:19;7.60;99.90
29939;DHT22;16799;50.844;5.304;2022-11-30T06:00:45;7.50;99.90
29939;DHT22;16799;50.844;5.304;2022-11-30T06:03:11;7.50;99.90
29939;DHT22;16799;50.844;5.304;2022-11-30T06:05:36;7.50;99.90
29939;DHT22;16799;50.844;5.304;2022-11-30T06:08:02;7.40;99.90
29939;DHT22;16799;50.844;5.304;2022-11-30T06:10:28;7.50;99.90
29939;DHT22;16799;50.844;5.304;2022-11-30T06:12:53;7.60;99.90
29939;DHT22;16799;50.844;5.304;2022-11-30T06:15:19;7.70;99.90
29939;DHT22;16799;50.844;5.304;2022-11-30T06:17:44;7.70;99.90
29939;DHT22;16799;50.844;5.304;2022-11-30T06:20:10;7.80;99.90
29939;DHT22;16799;50.844;5.304;2022-11-30T06:22:36;7.80;99.90
29939;DHT22;16799;50.844;5.304;2022-11-30T06:25:02;7.90;99.90
29939;DHT22;16799;50.844;5.304;2022-11-30T06:27:31;8.00;99.90
29939;DHT22;16799;50.844;5.304;2022-11-30T06:29:56;8.00;99.90
29939;DHT22;16799;50.844;5.304;2022-11-30T06:32:22;7.90;99.90
29939;DHT22;16799;50.844;5.304;2022-11-30T06:34:48;7.80;99.90
29939;DHT22;16799;50.844;5.304;2022-11-30T06:37:13;7.80;99.90
29939;DHT22;16799;50.844;5.304;2022-11-30T06:39:39;7.80;99.90
29939;DHT22;16799;50.844;5.304;2022-11-30T06:42:04;7.80;99.90
29939;DHT22;16799;50.844;5.304;2022-11-30T06:44:30;7.80;99.90
29939;DHT22;16799;50.844;5.304;2022-11-30T06:46:56;7.80;99.90
29939;DHT22;16799;50.844;5.304;2022-11-30T06:49:21;7.90;99.90
29939;DHT22;16799;50.844;5.304;2022-11-30T06:51:47;7.90;99.90
29939;DHT22;16799;50.844;5.304;2022-11-30T06:54:12;8.00;99.90
29939;DHT22;16799;50.844;5.304;2022-11-30T06:56:38;7.90;99.90
29939;DHT22;16799;50.844;5.304;2022-11-30T06:59:04;7.90;99.90
29939;DHT22;16799;50.844;5.304;2022-11-30T07:01:29;7.90;99.90
29939;DHT22;16799;50.844;5.304;2022-11-30T07:03:55;7.90;99.90
29939;DHT22;16799;50.844;5.304;2022-11-30T07:06:20;8.00;99.90
29939;DHT22;16799;50.844;5.304;2022-11-30T07:08:46;8.00;99.90
29939;DHT22;16799;50.844;5.304;2022-11-30T07:11:12;8.00;99.90
29939;DHT22;16799;50.844;5.304;2022-11-30T07:13:38;8.00;99.90
29939;DHT22;16799;50.844;5.304;2022-11-30T07:16:09;8.00;99.90
29939;DHT22;16799;50.844;5.304;2022-11-30T07:18:35;7.90;99.90
29939;DHT22;16799;50.844;5.304;2022-11-30T07:21:02;7.90;99.90
29939;DHT22;16799;50.844;5.304;2022-11-30T07:23:29;7.80;99.90
29939;DHT22;16799;50.844;5.304;2022-11-30T07:26:13;7.80;99.90
29939;DHT22;16799;50.844;5.304;2022-11-30T07:28:43;7.90;99.90
29939;DHT22;16799;50.844;5.304;2022-11-30T07:31:19;7.90;99.90
29939;DHT22;16799;50.844;5.304;2022-11-30T07:33:45;8.00;99.90
29939;DHT22;16799;50.844;5.304;2022-11-30T07:36:11;8.20;99.90
29939;DHT22;16799;50.844;5.304;2022-11-30T07:38:37;8.10;99.90
29939;DHT22;16799;50.844;5.304;2022-11-30T07:41:03;8.10;99.90
29939;DHT22;16799;50.844;5.304;2022-11-30T07:43:29;8.00;99.90
29939;DHT22;16799;50.844;5.304;2022-11-30T07:45:55;8.10;99.90
29939;DHT22;16799;50.844;5.304;2022-11-30T07:48:21;8.10;99.90
29939;DHT22;16799;50.844;5.304;2022-11-30T07:50:47;8.20;99.90
29939;DHT22;16799;50.844;5.304;2022-11-30T07:53:13;8.00;99.90
29939;DHT22;16799;50.844;5.304;2022-11-30T07:55:39;7.90;99.90
29939;DHT22;16799;50.844;5.304;2022-11-30T07:58:05;7.90;99.90
29939;DHT22;16799;50.844;5.304;2022-11-30T08:00:31;7.80;99.90
29939;DHT22;16799;50.844;5.304;2022-11-30T08:02:56;7.90;99.90
29939;DHT22;16799;50.844;5.304;2022-11-30T08:05:22;8.10;99.90
29939;DHT22;16799;50.844;5.304;2022-11-30T08:07:52;8.20;99.90
29939;DHT22;16799;50.844;5.304;2022-11-30T08:10:19;8.20;99.90
29939;DHT22;16799;50.844;5.304;2022-11-30T08:12:45;8.30;99.90
29939;DHT22;16799;50.844;5.304;2022-11-30T08:15:11;8.40;99.90
29939;DHT22;16799;50.844;5.304;2022-11-30T08:17:37;8.30;99.90
29939;DHT22;16799;50.844;5.304;2022-11-30T08:20:04;8.40;99.90
29939;DHT22;16799;50.844;5.304;2022-11-30T08:22:29;8.40;99.90
29939;DHT22;16799;50.844;5.304;2022-11-30T08:24:56;8.50;99.90
29939;DHT22;16799;50.844;5.304;2022-11-30T08:27:22;8.60;99.90
29939;DHT22;16799;50.844;5.304;2022-11-30T08:29:48;8.70;99.90
29939;DHT22;16799;50.844;5.304;2022-11-30T08:32:14;8.70;99.90
29939;DHT22;16799;50.844;5.304;2022-11-30T08:34:39;8.70;99.90
29939;DHT22;16799;50.844;5.304;2022-11-30T08:37:05;8.60;99.90
29939;DHT22;16799;50.844;5.304;2022-11-30T08:39:31;8.80;99.90
29939;DHT22;16799;50.844;5.304;2022-11-30T08:42:02;8.70;99.90
29939;DHT22;16799;50.844;5.304;2022-11-30T08:44:28;8.80;99.90
29939;DHT22;16799;50.844;5.304;2022-11-30T08:46:54;8.90;99.90
29939;DHT22;16799;50.844;5.304;2022-11-30T08:49:20;8.90;99.90
29939;DHT22;16799;50.844;5.304;2022-11-30T08:51:47;8.90;99.90
29939;DHT22;16799;50.844;5.304;2022-11-30T08:54:13;9.00;99.90
29939;DHT22;16799;50.844;5.304;2022-11-30T08:56:38;9.00;99.90
29939;DHT22;16799;50.844;5.304;2022-11-30T08:59:04;9.00;99.90
29939;DHT22;16799;50.844;5.304;2022-11-30T09:01:30;9.10;99.90
29939;DHT22;16799;50.844;5.304;2022-11-30T09:03:56;9.20;99.90
29939;DHT22;16799;50.844;5.304;2022-11-30T09:06:24;9.20;99.90
29939;DHT22;16799;50.844;5.304;2022-11-30T09:08:52;9.10;99.90
29939;DHT22;16799;50.844;5.304;2022-11-30T09:11:19;9.20;99.90
29939;DHT22;16799;50.844;5.304;2022-11-30T09:13:45;9.10;99.90
29939;DHT22;16799;50.844;5.304;2022-11-30T09:16:12;9.30;99.90
29939;DHT22;16799;50.844;5.304;2022-11-30T09:18:38;9.30;99.90
29939;DHT22;16799;50.844;5.304;2022-11-30T09:21:06;9.30;99.90
29939;DHT22;16799;50.844;5.304;2022-11-30T09:23:36;9.20;99.90
29939;DHT22;16799;50.844;5.304;2022-11-30T09:26:05;9.20;99.90
29939;DHT22;16799;50.844;5.304;2022-11-30T09:28:31;9.20;99.90
29939;DHT22;16799;50.844;5.304;2022-11-30T09:31:09;9.20;99.90
29939;DHT22;16799;50.844;5.304;2022-11-30T09:33:35;9.20;99.90
29939;DHT22;16799;50.844;5.304;2022-11-30T09:36:04;9.00;99.90
29939;DHT22;16799;50.844;5.304;2022-11-30T09:38:31;9.10;99.90
29939;DHT22;16799;50.844;5.304;2022-11-30T09:41:03;9.20;99.90
29939;DHT22;16799;50.844;5.304;2022-11-30T09:46:27;9.20;99.90
29939;DHT22;16799;50.844;5.304;2022-11-30T09:49:30;9.30;99.90
29939;DHT22;16799;50.844;5.304;2022-11-30T09:51:50;9.30;99.90
29939;DHT22;16799;50.844;5.304;2022-11-30T09:54:37;9.30;99.90
29939;DHT22;16799;50.844;5.304;2022-11-30T09:57:25;9.40;99.90
29939;DHT22;16799;50.844;5.304;2022-11-30T09:59:57;9.50;99.90
29939;DHT22;16799;50.844;5.304;2022-11-30T10:02:29;9.50;99.90
29939;DHT22;16799;50.844;5.304;2022-11-30T10:04:56;9.50;99.90
29939;DHT22;16799;50.844;5.304;2022-11-30T10:10:57;9.80;99.90
29939;DHT22;16799;50.844;5.304;2022-11-30T10:14:00;9.80;99.90
29939;DHT22;16799;50.844;5.304;2022-11-30T10:16:52;9.90;99.90
29939;DHT22;16799;50.844;5.304;2022-11-30T10:24:55;10.20;99.90
29939;DHT22;16799;50.844;5.304;2022-11-30T10:27:33;10.20;99.90
29939;DHT22;16799;50.844;5.304;2022-11-30T10:30:07;10.40;99.90
29939;DHT22;16799;50.844;5.304;2022-11-30T10:32:37;10.30;99.90
29939;DHT22;16799;50.844;5.304;2022-11-30T10:37:46;10.50;99.90
29939;DHT22;16799;50.844;5.304;2022-11-30T10:43:25;10.80;99.90
29939;DHT22;16799;50.844;5.304;2022-11-30T10:45:48;11.00;99.90
29939;DHT22;16799;50.844;5.304;2022-11-30T10:48:15;11.20;99.90
29939;DHT22;16799;50.844;5.304;2022-11-30T10:50:42;11.30;99.90
29939;DHT22;16799;50.844;5.304;2022-11-30T10:53:09;11.60;99.90
29939;DHT22;16799;50.844;5.304;2022-11-30T10:55:41;11.50;99.90
29939;DHT22;16799;50.844;5.304;2022-11-30T10:58:25;11.90;99.90
29939;DHT22;16799;50.844;5.304;2022-11-30T11:01:07;12.10;99.90
29939;DHT22;16799;50.844;5.304;2022-11-30T11:03:34;12.10;99.90
29939;DHT22;16799;50.844;5.304;2022-11-30T11:06:13;11.60;99.90
29939;DHT22;16799;50.844;5.304;2022-11-30T11:08:40;11.40;99.90
29939;DHT22;16799;50.844;5.304;2022-11-30T11:11:26;11.50;99.90
29939;DHT22;16799;50.844;5.304;2022-11-30T11:14:08;11.60;99.90
29939;DHT22;16799;50.844;5.304;2022-11-30T11:16:54;11.60;99.90
29939;DHT22;16799;50.844;5.304;2022-11-30T11:22:01;12.00;99.90
29939;DHT22;16799;50.844;5.304;2022-11-30T11:24:28;11.80;99.90
29939;DHT22;16799;50.844;5.304;2022-11-30T11:26:55;12.00;99.90
29939;DHT22;16799;50.844;5.304;2022-11-30T11:29:28;11.80;99.90
29939;DHT22;16799;50.844;5.304;2022-11-30T11:32:22;11.70;99.90
29939;DHT22;16799;50.844;5.304;2022-11-30T11:34:51;11.60;99.90
29939;DHT22;16799;50.844;5.304;2022-11-30T11:37:23;11.40;99.90
29939;DHT22;16799;50.844;5.304;2022-11-30T11:40:25;11.50;99.90
29939;DHT22;16799;50.844;5.304;2022-11-30T11:42:53;11.80;99.90
29939;DHT22;16799;50.844;5.304;2022-11-30T11:45:20;11.70;99.90
29939;DHT22;16799;50.844;5.304;2022-11-30T11:47:46;11.80;99.90
29939;DHT22;16799;50.844;5.304;2022-11-30T11:50:23;11.60;99.90
29939;DHT22;16799;50.844;5.304;2022-11-30T11:53:09;11.10;99.90
29939;DHT22;16799;50.844;5.304;2022-11-30T11:55:36;11.40;99.90
29939;DHT22;16799;50.844;5.304;2022-11-30T11:58:04;12.40;99.90
29939;DHT22;16799;50.844;5.304;2022-11-30T12:00:30;12.70;99.90
29939;DHT22;16799;50.844;5.304;2022-11-30T12:03:22;12.80;99.90
29939;DHT22;16799;50.844;5.304;2022-11-30T12:05:52;12.70;99.90
29939;DHT22;16799;50.844;5.304;2022-11-30T12:08:56;12.40;99.90
29939;DHT22;16799;50.844;5.304;2022-11-30T12:11:48;12.10;99.90
29939;DHT22;16799;50.844;5.304;2022-11-30T12:14:16;12.20;99.90
29939;DHT22;16799;50.844;5.304;2022-11-30T12:19:58;12.30;99.90
29939;DHT22;16799;50.844;5.304;2022-11-30T12:25:29;14.50;99.90
29939;DHT22;16799;50.844;5.304;2022-11-30T12:28:16;14.70;99.90
29939;DHT22;16799;50.844;5.304;2022-11-30T12:33:51;13.30;99.90
29939;DHT22;16799;50.844;5.304;2022-11-30T12:40:12;12.40;99.90
29939;DHT22;16799;50.844;5.304;2022-11-30T12:42:25;12.20;99.90
29939;DHT22;16799;50.844;5.304;2022-11-30T12:50:51;13.20;99.90
29939;DHT22;16799;50.844;5.304;2022-11-30T13:04:35;12.70;99.90
29939;DHT22;16799;50.844;5.304;2022-11-30T13:07:08;12.60;99.90
29939;DHT22;16799;50.844;5.304;2022-11-30T13:09:49;12.40;99.90
29939;DHT22;16799;50.844;5.304;2022-11-30T13:12:23;12.10;99.90
29939;DHT22;16799;50.844;5.304;2022-11-30T13:14:53;11.90;99.90
29939;DHT22;16799;50.844;5.304;2022-11-30T13:17:22;11.80;99.90
29939;DHT22;16799;50.844;5.304;2022-11-30T13:22:49;11.80;99.90
29939;DHT22;16799;50.844;5.304;2022-11-30T13:30:52;11.50;99.90
29939;DHT22;16799;50.844;5.304;2022-11-30T13:33:48;11.50;99.90
29939;DHT22;16799;50.844;5.304;2022-11-30T13:36:38;11.60;99.90
29939;DHT22;16799;50.844;5.304;2022-11-30T13:41:44;11.60;99.90
29939;DHT22;16799;50.844;5.304;2022-11-30T13:44:32;11.30;99.90
29939;DHT22;16799;50.844;5.304;2022-11-30T13:47:04;11.10;99.90
29939;DHT22;16799;50.844;5.304;2022-11-30T13:49:35;11.00;99.90
29939;DHT22;16799;50.844;5.304;2022-11-30T13:52:02;10.90;99.90
29939;DHT22;16799;50.844;5.304;2022-11-30T13:54:47;11.00;99.90
29939;DHT22;16799;50.844;5.304;2022-11-30T14:05:53;10.90;99.90
29939;DHT22;16799;50.844;5.304;2022-11-30T14:13:33;10.50;99.90
29939;DHT22;16799;50.844;5.304;2022-11-30T14:15:59;10.30;99.90
29939;DHT22;16799;50.844;5.304;2022-11-30T14:18:30;10.20;99.90
29939;DHT22;16799;50.844;5.304;2022-11-30T14:21:00;10.30;99.90
29939;DHT22;16799;50.844;5.304;2022-11-30T14:26:16;10.30;99.90
29939;DHT22;16799;50.844;5.304;2022-11-30T14:28:53;10.40;99.90
29939;DHT22;16799;50.844;5.304;2022-11-30T14:31:24;10.50;99.90
29939;DHT22;16799;50.844;5.304;2022-11-30T14:34:05;10.40;99.90
29939;DHT22;16799;50.844;5.304;2022-11-30T14:36:41;10.50;99.90
29939;DHT22;16799;50.844;5.304;2022-11-30T14:39:36;10.60;99.90
29939;DHT22;16799;50.844;5.304;2022-11-30T14:42:04;10.50;99.90
29939;DHT22;16799;50.844;5.304;2022-11-30T14:44:38;10.50;99.90
29939;DHT22;16799;50.844;5.304;2022-11-30T14:47:24;10.50;99.90
29939;DHT22;16799;50.844;5.304;2022-11-30T14:49:52;10.30;99.90
29939;DHT22;16799;50.844;5.304;2022-11-30T14:52:43;10.40;99.90
29939;DHT22;16799;50.844;5.304;2022-11-30T15:00:43;9.80;99.90
29939;DHT22;16799;50.844;5.304;2022-11-30T15:03:24;9.80;99.90
29939;DHT22;16799;50.844;5.304;2022-11-30T15:05:59;9.80;99.90
29939;DHT22;16799;50.844;5.304;2022-11-30T15:08:48;9.80;99.90
29939;DHT22;16799;50.844;5.304;2022-11-30T15:11:16;9.90;99.90
29939;DHT22;16799;50.844;5.304;2022-11-30T15:14:11;9.80;99.90
29939;DHT22;16799;50.844;5.304;2022-11-30T15:16:37;9.80;99.90
29939;DHT22;16799;50.844;5.304;2022-11-30T15:19:27;9.70;99.90
29939;DHT22;16799;50.844;5.304;2022-11-30T15:21:54;9.70;99.90
29939;DHT22;16799;50.844;5.304;2022-11-30T15:24:21;9.70;99.90
29939;DHT22;16799;50.844;5.304;2022-11-30T15:26:58;9.50;99.90
29939;DHT22;16799;50.844;5.304;2022-11-30T15:29:33;9.50;99.90
29939;DHT22;16799;50.844;5.304;2022-11-30T15:32:02;9.50;99.90
29939;DHT22;16799;50.844;5.304;2022-11-30T15:34:47;9.50;99.90
29939;DHT22;16799;50.844;5.304;2022-11-30T15:37:14;9.50;99.90
29939;DHT22;16799;50.844;5.304;2022-11-30T15:39:47;9.40;99.90
29939;DHT22;16799;50.844;5.304;2022-11-30T15:42:29;9.40;99.90
29939;DHT22;16799;50.844;5.304;2022-11-30T15:45:20;9.40;99.90
29939;DHT22;16799;50.844;5.304;2022-11-30T15:47:46;9.50;99.90
29939;DHT22;16799;50.844;5.304;2022-11-30T15:52:54;9.30;99.90
29939;DHT22;16799;50.844;5.304;2022-11-30T15:55:57;9.10;99.90
29939;DHT22;16799;50.844;5.304;2022-11-30T16:01:10;8.90;99.90
29939;DHT22;16799;50.844;5.304;2022-11-30T16:04:05;8.90;99.90
29939;DHT22;16799;50.844;5.304;2022-11-30T16:06:43;8.80;99.90
29939;DHT22;16799;50.844;5.304;2022-11-30T16:09:24;8.90;99.90
29939;DHT22;16799;50.844;5.304;2022-11-30T16:11:54;9.00;99.90
29939;DHT22;16799;50.844;5.304;2022-11-30T16:14:22;9.00;99.90
29939;DHT22;16799;50.844;5.304;2022-11-30T16:16:48;9.00;99.90
29939;DHT22;16799;50.844;5.304;2022-11-30T16:19:14;9.10;99.90
29939;DHT22;16799;50.844;5.304;2022-11-30T16:21:40;9.10;99.90
29939;DHT22;16799;50.844;5.304;2022-11-30T16:24:15;9.10;99.90
29939;DHT22;16799;50.844;5.304;2022-11-30T16:26:41;9.10;99.90
29939;DHT22;16799;50.844;5.304;2022-11-30T16:29:07;9.20;99.90
29939;DHT22;16799;50.844;5.304;2022-11-30T16:31:33;9.20;99.90
29939;DHT22;16799;50.844;5.304;2022-11-30T16:33:59;9.20;99.90
29939;DHT22;16799;50.844;5.304;2022-11-30T16:36:25;9.20;99.90
29939;DHT22;16799;50.844;5.304;2022-11-30T16:38:51;9.30;99.90
29939;DHT22;16799;50.844;5.304;2022-11-30T16:41:25;9.30;99.90
29939;DHT22;16799;50.844;5.304;2022-11-30T16:43:53;9.30;99.90
29939;DHT22;16799;50.844;5.304;2022-11-30T16:46:28;9.20;99.90
29939;DHT22;16799;50.844;5.304;2022-11-30T16:48:54;9.30;99.90
29939;DHT22;16799;50.844;5.304;2022-11-30T16:51:26;9.20;99.90
29939;DHT22;16799;50.844;5.304;2022-11-30T16:53:52;9.20;99.90
29939;DHT22;16799;50.844;5.304;2022-11-30T16:56:18;9.10;99.90
29939;DHT22;16799;50.844;5.304;2022-11-30T16:58:44;9.20;99.90
29939;DHT22;16799;50.844;5.304;2022-11-30T17:01:14;9.20;99.90
29939;DHT22;16799;50.844;5.304;2022-11-30T17:03:40;9.20;99.90
29939;DHT22;16799;50.844;5.304;2022-11-30T17:06:14;9.20;99.90
29939;DHT22;16799;50.844;5.304;2022-11-30T17:08:40;9.40;99.90
29939;DHT22;16799;50.844;5.304;2022-11-30T17:11:24;9.40;99.90
29939;DHT22;16799;50.844;5.304;2022-11-30T17:13:51;9.30;99.90
29939;DHT22;16799;50.844;5.304;2022-11-30T17:16:17;9.30;99.90
29939;DHT22;16799;50.844;5.304;2022-11-30T17:18:42;9.30;99.90
29939;DHT22;16799;50.844;5.304;2022-11-30T17:21:14;9.20;99.90
29939;DHT22;16799;50.844;5.304;2022-11-30T17:23:41;9.20;99.90
29939;DHT22;16799;50.844;5.304;2022-11-30T17:26:08;9.20;99.90
29939;DHT22;16799;50.844;5.304;2022-11-30T17:28:34;9.20;99.90
29939;DHT22;16799;50.844;5.304;2022-11-30T17:30:59;9.20;99.90
29939;DHT22;16799;50.844;5.304;2022-11-30T17:33:28;9.30;99.90
29939;DHT22;16799;50.844;5.304;2022-11-30T17:35:54;9.30;99.90
29939;DHT22;16799;50.844;5.304;2022-11-30T17:38:25;9.30;99.90
29939;DHT22;16799;50.844;5.304;2022-11-30T17:40:51;9.30;99.90
29939;DHT22;16799;50.844;5.304;2022-11-30T17:43:16;9.30;99.90